Time;durP1;ratioP1;P1;durP2;ratioP2;P2;SDS_P1;SDS_P2;PMS_P1;PMS_P2;Temp;Humidity;BMP_temperature;BMP_pressure;BME280_temperature;BME280_humidity;BME280_pressure;Samples;Min_cycle;Max_cycle;Signal;HPM_P1;HPM_P2
2023/08/10 00:01:51;;;;;;;5.87;2.90;;;14.20;99.90;;;;;;464893;254;29270;-79
2023/08/10 00:03:52;;;;;;;2.90;2.60;;;14.10;99.90;;;;;;464885;254;28924;-79
2023/08/10 00:05:53;;;;;;;3.20;2.63;;;14.10;99.90;;;;;;464894;254;29036;-79
2023/08/10 00:07:55;;;;;;;2.43;2.23;;;14.10;99.90;;;;;;464836;254;28620;-79
2023/08/10 00:09:57;;;;;;;4.30;3.03;;;14.10;99.90;;;;;;464811;255;28966;-79
2023/08/10 00:11:57;;;;;;;2.87;2.50;;;14.10;99.90;;;;;;464845;252;29437;-79
2023/08/10 00:13:58;;;;;;;3.30;3.00;;;14.20;99.90;;;;;;464827;256;28449;-79
2023/08/10 00:16:00;;;;;;;2.73;2.47;;;14.10;99.90;;;;;;464855;254;28971;-78
2023/08/10 00:18:01;;;;;;;3.20;2.60;;;14.10;99.90;;;;;;464868;254;28602;-79
2023/08/10 00:20:10;;;;;;;5.43;2.23;;;14.10;99.90;;;;;;464880;254;28538;-79
2023/08/10 00:22:03;;;;;;;2.63;2.43;;;14.00;99.90;;;;;;464733;256;29134;-79
2023/08/10 00:24:05;;;;;;;2.53;2.33;;;14.00;99.90;;;;;;464839;256;29407;-78
2023/08/10 00:26:06;;;;;;;3.37;3.07;;;13.90;99.90;;;;;;464889;254;29443;-78
2023/08/10 00:28:07;;;;;;;5.83;2.30;;;13.80;99.90;;;;;;464865;254;29398;-79
2023/08/10 00:30:09;;;;;;;3.80;2.57;;;13.80;99.90;;;;;;464863;254;28700;-78
2023/08/10 00:32:10;;;;;;;2.60;2.30;;;13.80;99.90;;;;;;464906;253;28643;-79
2023/08/10 00:34:12;;;;;;;4.10;2.70;;;13.70;99.90;;;;;;464836;254;28600;-79
2023/08/10 00:36:12;;;;;;;6.10;2.50;;;13.70;99.90;;;;;;464875;254;28584;-79
2023/08/10 00:38:13;;;;;;;2.50;2.30;;;13.70;99.90;;;;;;464819;254;28491;-79
2023/08/10 00:40:15;;;;;;;2.50;2.30;;;13.60;99.90;;;;;;464880;254;28668;-79
2023/08/10 00:42:16;;;;;;;3.40;2.40;;;13.60;99.90;;;;;;464685;254;28449;-79
2023/08/10 00:44:17;;;;;;;3.80;2.73;;;13.60;99.90;;;;;;464861;256;28599;-79
2023/08/10 00:46:19;;;;;;;2.47;2.33;;;13.60;99.90;;;;;;464906;254;28623;-79
2023/08/10 00:48:20;;;;;;;3.27;2.37;;;13.60;99.90;;;;;;464623;254;28607;-79
2023/08/10 00:50:21;;;;;;;2.93;2.63;;;13.50;99.90;;;;;;464921;255;28280;-79
2023/08/10 00:52:22;;;;;;;3.07;2.40;;;13.50;99.90;;;;;;464907;254;28548;-79
2023/08/10 00:54:24;;;;;;;3.40;2.47;;;13.50;99.90;;;;;;464889;254;28690;-79
2023/08/10 00:56:25;;;;;;;3.10;2.40;;;13.40;99.90;;;;;;464922;255;28942;-79
2023/08/10 00:58:26;;;;;;;3.00;2.70;;;13.40;99.90;;;;;;464887;254;28517;-79
2023/08/10 01:00:27;;;;;;;2.63;2.40;;;13.40;99.90;;;;;;464904;254;29078;-79
2023/08/10 01:02:29;;;;;;;2.50;2.30;;;13.30;99.90;;;;;;464910;254;29134;-79
2023/08/10 01:04:30;;;;;;;2.60;2.40;;;13.30;99.90;;;;;;464903;254;29025;-78
2023/08/10 01:06:31;;;;;;;5.73;2.60;;;13.30;99.90;;;;;;464913;254;28585;-79
2023/08/10 01:08:32;;;;;;;5.17;2.90;;;13.30;99.90;;;;;;464937;252;28639;-79
2023/08/10 01:10:34;;;;;;;3.10;2.33;;;13.30;99.90;;;;;;464918;254;28538;-79
2023/08/10 01:12:35;;;;;;;2.50;2.20;;;13.20;99.90;;;;;;464868;254;28473;-79
2023/08/10 01:14:36;;;;;;;4.63;2.43;;;13.30;99.90;;;;;;464888;253;28571;-79
2023/08/10 01:16:38;;;;;;;2.50;2.30;;;13.20;99.90;;;;;;464864;254;28298;-79
2023/08/10 01:18:39;;;;;;;3.87;2.43;;;13.20;99.90;;;;;;464901;254;28499;-79
2023/08/10 01:20:40;;;;;;;2.87;2.57;;;13.10;99.90;;;;;;464895;254;28496;-79
2023/08/10 01:22:41;;;;;;;3.20;2.90;;;13.10;99.90;;;;;;464884;255;28646;-79
2023/08/10 01:24:42;;;;;;;6.70;2.83;;;13.00;99.90;;;;;;464855;250;28428;-79
2023/08/10 01:26:44;;;;;;;3.50;2.60;;;13.00;99.90;;;;;;464890;254;28420;-79
2023/08/10 01:28:45;;;;;;;3.03;2.33;;;13.00;99.90;;;;;;464909;254;28417;-79
2023/08/10 01:30:46;;;;;;;2.50;2.30;;;13.00;99.90;;;;;;464893;254;28340;-79
2023/08/10 01:32:47;;;;;;;5.97;3.30;;;13.00;99.90;;;;;;464883;254;28398;-79
2023/08/10 01:34:50;;;;;;;2.80;2.60;;;12.90;99.90;;;;;;464860;254;29572;-79
2023/08/10 01:36:50;;;;;;;2.53;2.33;;;12.90;99.90;;;;;;464853;251;28944;-79
2023/08/10 01:38:51;;;;;;;2.77;2.57;;;12.90;99.90;;;;;;464840;254;28786;-79
2023/08/10 01:40:52;;;;;;;5.10;1.97;;;12.90;99.90;;;;;;464774;256;28323;-79
2023/08/10 01:42:54;;;;;;;2.73;2.47;;;12.90;99.90;;;;;;464863;254;28287;-79
2023/08/10 01:44:55;;;;;;;2.60;2.40;;;12.90;99.90;;;;;;464898;253;28427;-78
2023/08/10 01:46:58;;;;;;;2.77;2.57;;;;;;;;;;464799;256;28494;-79
2023/08/10 01:49:00;;;;;;;2.73;2.53;;;;;;;;;;464883;255;27105;-79
2023/08/10 01:51:01;;;;;;;2.60;2.40;;;12.70;99.90;;;;;;464876;255;26665;-79
2023/08/10 01:53:02;;;;;;;2.80;2.60;;;12.80;99.90;;;;;;464704;256;28982;-78
2023/08/10 01:55:04;;;;;;;2.80;2.60;;;12.80;99.90;;;;;;464874;254;28497;-78
2023/08/10 01:57:05;;;;;;;3.13;2.43;;;12.80;99.90;;;;;;464872;254;28410;-79
2023/08/10 01:59:06;;;;;;;2.50;2.37;;;12.80;99.90;;;;;;464872;254;28751;-79
2023/08/10 02:01:07;;;;;;;5.50;2.37;;;12.80;99.90;;;;;;464896;254;28873;-79
2023/08/10 02:03:09;;;;;;;2.80;2.57;;;12.70;99.90;;;;;;464907;254;28721;-79
2023/08/10 02:05:13;;;;;;;2.77;2.57;;;12.70;99.90;;;;;;464904;254;28786;-79
2023/08/10 02:07:13;;;;;;;2.57;2.37;;;;;;;;;;464859;255;28177;-79
2023/08/10 02:09:14;;;;;;;2.60;2.40;;;12.50;99.90;;;;;;464833;255;26558;-79
2023/08/10 02:11:15;;;;;;;2.87;2.67;;;12.50;99.90;;;;;;464896;254;28475;-79
2023/08/10 02:13:16;;;;;;;2.77;2.57;;;12.40;99.90;;;;;;464893;254;28966;-78
2023/08/10 02:15:17;;;;;;;2.77;2.57;;;12.40;99.90;;;;;;464894;254;28708;-79
2023/08/10 02:17:19;;;;;;;3.20;2.53;;;12.40;99.90;;;;;;464886;254;29023;-79
2023/08/10 02:19:20;;;;;;;3.60;2.30;;;12.40;99.90;;;;;;464802;254;29599;-78
2023/08/10 02:21:24;;;;;;;3.00;2.27;;;12.40;99.90;;;;;;464895;254;28995;-78
2023/08/10 02:23:23;;;;;;;2.40;2.20;;;12.40;99.90;;;;;;464900;255;28337;-79
2023/08/10 02:25:24;;;;;;;3.20;2.50;;;12.40;99.90;;;;;;464882;254;28295;-79
2023/08/10 02:27:26;;;;;;;4.70;2.60;;;;;;;;;;464911;254;28447;-78
2023/08/10 02:29:27;;;;;;;2.40;2.20;;;12.10;99.90;;;;;;464907;255;27073;-79
2023/08/10 02:31:28;;;;;;;3.00;2.80;;;12.20;99.90;;;;;;464882;254;29462;-79
2023/08/10 02:33:30;;;;;;;7.67;2.80;;;12.10;99.90;;;;;;464917;253;28450;-79
2023/08/10 02:35:31;;;;;;;2.80;2.60;;;12.10;99.90;;;;;;464930;254;28939;-79
2023/08/10 02:37:32;;;;;;;3.70;3.07;;;12.00;99.90;;;;;;464920;254;28955;-79
2023/08/10 02:39:34;;;;;;;6.67;3.07;;;11.90;99.90;;;;;;464935;254;28633;-79
2023/08/10 02:41:36;;;;;;;2.93;2.70;;;;;;;;;;464901;251;28749;-79
2023/08/10 02:43:37;;;;;;;2.30;2.20;;;11.90;99.90;;;;;;464920;255;26985;-78
2023/08/10 02:45:38;;;;;;;2.70;2.50;;;11.90;99.90;;;;;;464882;254;28682;-79
2023/08/10 02:47:40;;;;;;;3.60;2.40;;;12.00;99.90;;;;;;464920;255;28099;-79
2023/08/10 02:49:41;;;;;;;2.70;2.50;;;12.00;99.90;;;;;;464933;254;28943;-79
2023/08/10 02:51:42;;;;;;;2.57;2.37;;;12.10;99.90;;;;;;464910;254;28248;-78
2023/08/10 02:53:43;;;;;;;3.17;2.53;;;12.10;99.90;;;;;;464862;256;28557;-79
2023/08/10 02:55:45;;;;;;;2.50;2.30;;;12.10;99.90;;;;;;464924;254;28685;-79
2023/08/10 02:57:46;;;;;;;2.90;2.70;;;12.10;99.90;;;;;;464924;256;28928;-78
2023/08/10 02:59:47;;;;;;;2.60;2.40;;;12.10;99.90;;;;;;464917;254;29053;-79
2023/08/10 03:01:49;;;;;;;2.77;2.40;;;12.10;99.90;;;;;;464936;254;29138;-79
2023/08/10 03:03:50;;;;;;;3.10;2.70;;;12.10;99.90;;;;;;464886;254;29198;-79
2023/08/10 03:05:51;;;;;;;2.87;2.60;;;12.10;99.90;;;;;;464310;256;28994;-79
2023/08/10 03:07:52;;;;;;;5.90;2.90;;;12.00;99.90;;;;;;464903;254;28126;-79
2023/08/10 03:09:55;;;;;;;3.77;2.37;;;;;;;;;;464838;254;28966;-79
2023/08/10 03:11:56;;;;;;;2.70;2.50;;;12.00;99.90;;;;;;464870;255;27294;-79
2023/08/10 03:13:57;;;;;;;2.73;2.40;;;12.00;99.90;;;;;;464880;254;28842;-78
2023/08/10 03:15:58;;;;;;;3.73;2.57;;;12.00;99.90;;;;;;464898;254;28638;-78
2023/08/10 03:18:00;;;;;;;2.53;2.33;;;11.90;99.90;;;;;;464881;254;28593;-78
2023/08/10 03:20:01;;;;;;;3.00;2.63;;;11.90;99.90;;;;;;464852;254;28547;-79
2023/08/10 03:22:02;;;;;;;2.93;2.30;;;11.90;99.90;;;;;;464857;255;28745;-79
2023/08/10 03:24:03;;;;;;;2.90;2.57;;;11.90;99.90;;;;;;464889;255;28198;-79
2023/08/10 03:26:05;;;;;;;4.93;2.73;;;11.90;99.90;;;;;;464915;254;28407;-79
2023/08/10 03:28:07;;;;;;;32.67;3.77;;;;;;;;;;464893;254;28185;-79
2023/08/10 03:30:08;;;;;;;7.40;2.50;;;11.80;99.90;;;;;;464882;253;27647;-79
2023/08/10 03:32:10;;;;;;;4.83;2.73;;;11.80;99.90;;;;;;464643;256;28964;-78
2023/08/10 03:34:11;;;;;;;2.50;2.30;;;11.80;99.90;;;;;;464799;256;28203;-79
2023/08/10 03:36:12;;;;;;;5.63;3.00;;;11.80;99.90;;;;;;464896;254;28170;-78
2023/08/10 03:38:13;;;;;;;3.47;2.37;;;11.80;99.90;;;;;;464865;254;28381;-79
2023/08/10 03:40:15;;;;;;;3.00;2.60;;;11.80;99.90;;;;;;464892;254;28651;-78
2023/08/10 03:42:16;;;;;;;2.53;2.33;;;11.80;99.90;;;;;;464915;254;28785;-78
2023/08/10 03:44:17;;;;;;;3.30;3.00;;;11.80;99.90;;;;;;464896;254;28650;-79
2023/08/10 03:46:18;;;;;;;2.73;2.53;;;11.80;99.90;;;;;;464875;254;28545;-79
2023/08/10 03:48:20;;;;;;;2.90;2.60;;;11.80;99.90;;;;;;464869;255;29065;-79
2023/08/10 03:50:21;;;;;;;2.90;2.60;;;11.70;99.90;;;;;;464670;254;28979;-79
2023/08/10 03:52:23;;;;;;;4.13;2.80;;;11.70;99.90;;;;;;464682;256;29007;-79
2023/08/10 03:54:23;;;;;;;4.00;2.93;;;11.70;99.90;;;;;;464856;254;28377;-79
2023/08/10 03:56:25;;;;;;;3.87;2.70;;;11.60;99.90;;;;;;464883;254;28061;-79
2023/08/10 03:58:26;;;;;;;3.00;2.63;;;11.60;99.90;;;;;;464873;254;28356;-78
2023/08/10 04:00:27;;;;;;;2.53;2.33;;;11.60;99.90;;;;;;464856;253;28721;-79
2023/08/10 04:02:28;;;;;;;8.83;2.63;;;11.60;99.90;;;;;;464902;254;28560;-78
2023/08/10 04:04:30;;;;;;;3.80;3.00;;;11.60;99.90;;;;;;464864;256;28501;-79
2023/08/10 04:06:31;;;;;;;4.50;3.03;;;11.50;99.90;;;;;;464877;254;28505;-79
2023/08/10 04:08:32;;;;;;;3.03;2.73;;;11.50;99.90;;;;;;464845;256;28914;-79
2023/08/10 04:10:34;;;;;;;2.87;2.67;;;11.40;99.90;;;;;;464881;254;28433;-79
2023/08/10 04:12:35;;;;;;;3.90;3.20;;;11.40;99.90;;;;;;464876;254;29055;-78
2023/08/10 04:14:36;;;;;;;2.60;2.37;;;11.40;99.90;;;;;;464846;256;28997;-78
2023/08/10 04:16:37;;;;;;;5.20;3.00;;;11.50;99.90;;;;;;464862;255;28941;-79
2023/08/10 04:18:38;;;;;;;3.43;2.97;;;11.50;99.90;;;;;;464874;254;28508;-79
2023/08/10 04:20:40;;;;;;;3.20;2.80;;;11.50;99.90;;;;;;464879;254;28374;-79
2023/08/10 04:22:41;;;;;;;2.83;2.63;;;11.50;99.90;;;;;;464876;256;28637;-79
2023/08/10 04:24:42;;;;;;;3.20;2.60;;;11.40;99.90;;;;;;464876;254;28480;-79
2023/08/10 04:26:45;;;;;;;4.33;2.53;;;11.50;99.90;;;;;;464847;254;28625;-78
2023/08/10 04:28:45;;;;;;;7.20;3.03;;;11.40;99.90;;;;;;464876;254;28263;-78
2023/08/10 04:30:46;;;;;;;2.70;2.50;;;11.40;99.90;;;;;;464876;254;28518;-78
2023/08/10 04:32:47;;;;;;;2.77;2.50;;;11.40;99.90;;;;;;464902;254;28397;-79
2023/08/10 04:34:48;;;;;;;2.60;2.23;;;11.40;99.90;;;;;;464930;254;29051;-78
2023/08/10 04:36:50;;;;;;;3.30;3.03;;;11.40;99.90;;;;;;464918;250;29044;-78
2023/08/10 04:38:51;;;;;;;3.00;2.80;;;11.40;99.90;;;;;;464921;252;29077;-78
2023/08/10 04:40:53;;;;;;;4.20;2.70;;;11.30;99.90;;;;;;464919;254;28882;-79
2023/08/10 04:42:54;;;;;;;4.50;2.90;;;11.40;99.90;;;;;;464944;254;28490;-79
2023/08/10 04:44:55;;;;;;;2.60;2.40;;;11.30;99.90;;;;;;464924;254;28411;-79
2023/08/10 04:46:56;;;;;;;2.60;2.40;;;11.20;99.90;;;;;;464907;254;28320;-78
2023/08/10 04:48:57;;;;;;;2.67;2.50;;;11.20;99.90;;;;;;464902;254;28370;-79
2023/08/10 04:51:00;;;;;;;3.03;2.60;;;;;;;;;;464915;255;28372;-78
2023/08/10 04:53:02;;;;;;;3.03;2.73;;;11.20;99.90;;;;;;464902;255;27782;-79
2023/08/10 04:55:03;;;;;;;3.10;2.90;;;11.20;99.90;;;;;;464907;250;28420;-79
2023/08/10 04:57:03;;;;;;;2.90;2.60;;;11.20;99.90;;;;;;464682;256;28260;-79
2023/08/10 04:59:05;;;;;;;3.50;3.20;;;11.20;99.90;;;;;;464921;251;28423;-79
2023/08/10 05:01:06;;;;;;;3.40;3.10;;;11.20;99.90;;;;;;464927;254;28269;-79
2023/08/10 05:03:07;;;;;;;4.37;3.30;;;11.20;99.90;;;;;;464904;254;28501;-79
2023/08/10 05:05:08;;;;;;;3.40;3.10;;;11.40;99.90;;;;;;464853;256;28405;-79
2023/08/10 05:07:10;;;;;;;3.33;2.90;;;11.40;99.90;;;;;;464876;254;28350;-79
2023/08/10 05:09:11;;;;;;;4.00;2.90;;;11.40;99.90;;;;;;464914;254;28268;-79
2023/08/10 05:11:12;;;;;;;3.43;3.13;;;11.50;99.90;;;;;;464905;252;29069;-79
2023/08/10 05:13:13;;;;;;;2.60;2.40;;;11.50;99.90;;;;;;464921;254;29175;-79
2023/08/10 05:15:15;;;;;;;5.20;3.23;;;11.50;99.90;;;;;;464895;255;28621;-78
2023/08/10 05:17:16;;;;;;;3.03;2.73;;;11.50;99.90;;;;;;464902;253;28978;-79
2023/08/10 05:19:17;;;;;;;2.70;2.50;;;11.50;99.90;;;;;;464917;254;28547;-79
2023/08/10 05:21:18;;;;;;;2.60;2.47;;;11.50;99.90;;;;;;464882;254;28507;-79
2023/08/10 05:23:20;;;;;;;3.70;3.40;;;11.60;99.90;;;;;;464901;254;28284;-79
2023/08/10 05:25:21;;;;;;;2.80;2.60;;;11.70;99.90;;;;;;464898;254;28441;-78
2023/08/10 05:27:23;;;;;;;2.70;2.50;;;;;;;;;;464899;254;28319;-78
2023/08/10 05:29:25;;;;;;;3.17;2.97;;;11.70;99.90;;;;;;464925;255;27577;-78
2023/08/10 05:31:26;;;;;;;11.03;3.00;;;11.80;99.90;;;;;;464895;256;28279;-79
2023/08/10 05:33:27;;;;;;;6.80;3.73;;;11.80;99.90;;;;;;464875;254;28488;-79
2023/08/10 05:35:28;;;;;;;4.73;2.90;;;11.80;99.90;;;;;;464687;255;28400;-78
2023/08/10 05:37:30;;;;;;;4.33;2.87;;;11.80;99.90;;;;;;464898;254;28468;-78
2023/08/10 05:39:31;;;;;;;4.90;2.97;;;11.80;99.90;;;;;;464925;254;28271;-79
2023/08/10 05:41:32;;;;;;;3.00;2.73;;;11.90;99.90;;;;;;464890;255;28153;-79
2023/08/10 05:43:33;;;;;;;3.30;3.00;;;11.90;99.90;;;;;;464903;254;28463;-79
2023/08/10 05:45:35;;;;;;;7.13;3.67;;;12.00;99.90;;;;;;464883;254;28657;-79
2023/08/10 05:47:36;;;;;;;3.03;2.63;;;12.10;99.90;;;;;;464904;254;29459;-79
2023/08/10 05:49:37;;;;;;;4.07;2.90;;;12.10;99.90;;;;;;464907;254;28676;-79
2023/08/10 05:51:38;;;;;;;3.50;2.87;;;12.20;99.90;;;;;;464891;254;29024;-79
2023/08/10 05:53:40;;;;;;;3.00;2.80;;;12.20;99.90;;;;;;464897;254;28991;-79
2023/08/10 05:55:42;;;;;;;3.23;2.83;;;12.20;99.90;;;;;;464916;254;28529;-79
2023/08/10 05:57:42;;;;;;;2.90;2.70;;;12.30;99.90;;;;;;464918;255;28327;-79
2023/08/10 05:59:43;;;;;;;3.40;3.10;;;12.40;99.90;;;;;;464905;254;28144;-77
2023/08/10 06:01:45;;;;;;;2.73;2.47;;;12.40;99.90;;;;;;464904;255;28384;-79
2023/08/10 06:03:46;;;;;;;3.33;2.70;;;12.40;99.90;;;;;;464886;254;28316;-79
2023/08/10 06:05:47;;;;;;;3.43;3.13;;;12.50;99.90;;;;;;464898;252;28805;-79
2023/08/10 06:07:48;;;;;;;6.03;3.17;;;12.60;99.90;;;;;;464886;256;28249;-79
2023/08/10 06:09:50;;;;;;;3.90;2.87;;;12.60;99.90;;;;;;464938;254;28319;-78
2023/08/10 06:11:51;;;;;;;7.30;2.97;;;12.70;99.90;;;;;;464900;254;28918;-79
2023/08/10 06:13:52;;;;;;;4.77;3.20;;;12.80;99.90;;;;;;464893;256;28846;-78
2023/08/10 06:15:53;;;;;;;6.13;2.77;;;12.80;99.90;;;;;;464937;254;28934;-79
2023/08/10 06:17:55;;;;;;;3.07;2.80;;;12.90;99.90;;;;;;464928;254;29053;-78
2023/08/10 06:19:57;;;;;;;3.03;2.60;;;12.90;99.90;;;;;;464912;256;28300;-79
2023/08/10 06:21:57;;;;;;;2.93;2.70;;;13.00;99.90;;;;;;464900;254;28255;-79
2023/08/10 06:23:59;;;;;;;4.10;2.93;;;13.00;99.90;;;;;;464887;254;28288;-78
2023/08/10 06:26:00;;;;;;;3.67;2.90;;;13.10;99.90;;;;;;464895;254;28406;-79
2023/08/10 06:28:02;;;;;;;3.30;2.57;;;13.20;99.90;;;;;;464859;253;28967;-79
2023/08/10 06:30:02;;;;;;;5.30;2.70;;;13.20;99.90;;;;;;464861;254;28906;-78
2023/08/10 06:32:04;;;;;;;2.57;2.37;;;13.30;99.90;;;;;;464871;254;29520;-79
2023/08/10 06:34:05;;;;;;;3.50;2.83;;;13.40;99.90;;;;;;464910;254;28445;-79
2023/08/10 06:36:06;;;;;;;3.20;2.90;;;13.40;99.90;;;;;;464874;256;28375;-78
2023/08/10 06:38:07;;;;;;;2.77;2.57;;;13.50;99.90;;;;;;464883;255;28372;-79
2023/08/10 06:40:09;;;;;;;3.10;2.60;;;13.60;99.90;;;;;;464867;254;28512;-78
2023/08/10 06:42:10;;;;;;;2.87;2.67;;;13.70;99.90;;;;;;464870;254;28968;-79
2023/08/10 06:44:11;;;;;;;2.90;2.70;;;13.80;99.90;;;;;;464827;256;28494;-79
2023/08/10 06:46:12;;;;;;;2.63;2.43;;;13.90;99.90;;;;;;464874;254;28451;-79
2023/08/10 06:48:14;;;;;;;2.77;2.50;;;14.00;99.90;;;;;;464709;254;28295;-79
2023/08/10 06:50:15;;;;;;;3.23;3.00;;;14.10;99.90;;;;;;464500;256;28595;-78
2023/08/10 06:52:16;;;;;;;4.60;3.37;;;14.20;99.90;;;;;;464907;256;28979;-78
2023/08/10 06:54:17;;;;;;;6.70;2.70;;;14.40;99.90;;;;;;464867;254;29021;-80
2023/08/10 06:56:19;;;;;;;2.77;2.50;;;14.40;99.90;;;;;;464825;256;29244;-79
2023/08/10 06:58:20;;;;;;;3.67;2.87;;;14.40;99.90;;;;;;464899;254;28602;-79
2023/08/10 07:00:24;;;;;;;3.07;2.80;;;14.50;99.90;;;;;;464846;254;29016;-79
2023/08/10 07:02:22;;;;;;;4.63;3.23;;;14.60;99.90;;;;;;464927;254;29077;-79
2023/08/10 07:04:24;;;;;;;2.90;2.70;;;14.70;99.90;;;;;;464873;254;28924;-79
2023/08/10 07:06:25;;;;;;;3.80;2.80;;;14.80;99.90;;;;;;464886;254;28639;-79
2023/08/10 07:08:26;;;;;;;2.77;2.57;;;14.80;99.90;;;;;;464875;254;28312;-79
2023/08/10 07:10:27;;;;;;;3.73;2.80;;;14.90;99.90;;;;;;464838;254;29103;-79
2023/08/10 07:12:29;;;;;;;3.00;2.70;;;15.00;99.90;;;;;;464883;254;28955;-79
2023/08/10 07:14:30;;;;;;;2.67;2.47;;;15.10;99.90;;;;;;464857;256;28909;-79
2023/08/10 07:16:31;;;;;;;6.83;2.77;;;15.40;99.90;;;;;;464868;254;29509;-79
2023/08/10 07:18:32;;;;;;;4.20;2.53;;;15.40;99.90;;;;;;464882;254;29458;-79
2023/08/10 07:20:35;;;;;;;2.93;2.53;;;15.50;99.90;;;;;;464838;254;29497;-79
2023/08/10 07:22:35;;;;;;;3.07;2.80;;;15.50;99.90;;;;;;464866;254;29548;-79
2023/08/10 07:24:36;;;;;;;6.77;2.63;;;15.60;99.90;;;;;;464834;254;28971;-80
2023/08/10 07:26:37;;;;;;;2.33;2.13;;;15.70;99.90;;;;;;464826;250;28976;-79
2023/08/10 07:28:39;;;;;;;5.20;2.30;;;15.70;99.90;;;;;;464813;254;28927;-79
2023/08/10 07:30:40;;;;;;;3.17;2.63;;;15.90;99.90;;;;;;464830;254;28959;-79
2023/08/10 07:32:42;;;;;;;2.83;2.50;;;16.00;99.90;;;;;;464876;254;28964;-79
2023/08/10 07:34:42;;;;;;;2.70;2.47;;;16.10;99.90;;;;;;464841;254;28914;-79
2023/08/10 07:36:44;;;;;;;2.80;2.60;;;16.10;99.90;;;;;;464878;254;28979;-79
2023/08/10 07:38:45;;;;;;;3.10;2.80;;;16.00;99.90;;;;;;464877;254;28899;-79
2023/08/10 07:40:47;;;;;;;2.30;2.10;;;16.00;99.90;;;;;;464856;254;29446;-79
2023/08/10 07:42:47;;;;;;;6.93;2.50;;;16.10;99.90;;;;;;464861;254;29482;-78
2023/08/10 07:44:49;;;;;;;3.10;2.47;;;16.20;99.90;;;;;;464890;254;29373;-80
2023/08/10 07:46:50;;;;;;;3.80;2.50;;;16.30;99.90;;;;;;464859;254;29514;-79
2023/08/10 07:48:51;;;;;;;2.90;2.40;;;16.30;99.90;;;;;;464868;254;28915;-79
2023/08/10 07:50:54;;;;;;;3.70;2.80;;;16.40;99.90;;;;;;464917;251;29004;-79
2023/08/10 07:52:54;;;;;;;2.27;2.03;;;16.80;99.90;;;;;;464858;256;28955;-78
2023/08/10 07:54:55;;;;;;;2.40;2.20;;;16.80;99.90;;;;;;464911;254;28902;-79
2023/08/10 07:56:56;;;;;;;2.93;2.60;;;16.70;99.90;;;;;;464774;256;29062;-79
2023/08/10 07:58:57;;;;;;;3.30;2.70;;;16.50;99.90;;;;;;464732;254;28951;-79
2023/08/10 08:00:59;;;;;;;2.60;2.40;;;16.50;99.90;;;;;;464909;254;28926;-79
2023/08/10 08:03:00;;;;;;;2.93;2.63;;;16.50;99.90;;;;;;464882;254;28951;-79
2023/08/10 08:05:01;;;;;;;7.73;2.60;;;16.50;99.90;;;;;;464607;254;28983;-79
2023/08/10 08:07:03;;;;;;;2.80;2.60;;;16.80;99.90;;;;;;464858;254;28949;-79
2023/08/10 08:09:06;;;;;;;2.83;2.07;;;16.90;99.90;;;;;;464883;255;28950;-79
2023/08/10 08:11:05;;;;;;;2.87;2.67;;;17.10;99.90;;;;;;464700;256;28934;-79
2023/08/10 08:13:06;;;;;;;4.23;2.40;;;17.00;99.90;;;;;;464709;256;28943;-80
2023/08/10 08:15:08;;;;;;;3.63;2.60;;;17.00;99.90;;;;;;464916;254;28915;-79
2023/08/10 08:17:09;;;;;;;3.00;2.70;;;17.10;99.90;;;;;;464859;254;28960;-79
2023/08/10 08:19:10;;;;;;;2.47;2.33;;;17.00;99.90;;;;;;464890;255;28942;-79
2023/08/10 08:21:11;;;;;;;2.73;2.20;;;17.00;99.90;;;;;;464922;254;28925;-79
2023/08/10 08:23:13;;;;;;;2.40;2.20;;;17.00;99.90;;;;;;464923;254;29411;-80
2023/08/10 08:25:14;;;;;;;5.17;2.57;;;17.00;99.90;;;;;;464891;254;29473;-79
2023/08/10 08:27:15;;;;;;;2.70;2.50;;;17.00;99.90;;;;;;464882;254;29426;-79
2023/08/10 08:29:17;;;;;;;2.93;2.33;;;17.00;99.90;;;;;;464875;256;29625;-79
2023/08/10 08:31:18;;;;;;;2.03;1.93;;;17.00;99.90;;;;;;464917;254;29073;-79
2023/08/10 08:33:19;;;;;;;2.33;2.17;;;17.10;99.90;;;;;;464878;254;28947;-79
2023/08/10 08:35:20;;;;;;;2.23;2.03;;;17.10;99.90;;;;;;464893;254;28909;-79
2023/08/10 08:37:21;;;;;;;6.10;2.23;;;17.00;99.90;;;;;;464869;252;28935;-79
2023/08/10 08:39:23;;;;;;;3.17;2.37;;;17.00;99.90;;;;;;464893;254;29380;-79
2023/08/10 08:41:24;;;;;;;2.50;2.30;;;17.10;99.90;;;;;;464847;256;28913;-79
2023/08/10 08:43:25;;;;;;;2.80;2.60;;;17.20;99.90;;;;;;464910;255;28956;-80
2023/08/10 08:45:26;;;;;;;4.80;2.53;;;17.40;99.90;;;;;;464873;254;29021;-79
2023/08/10 08:47:28;;;;;;;2.63;2.40;;;17.60;99.90;;;;;;464711;256;28968;-78
2023/08/10 08:49:29;;;;;;;2.57;2.37;;;17.60;99.90;;;;;;464705;256;29453;-78
2023/08/10 08:51:30;;;;;;;2.37;2.17;;;17.50;99.90;;;;;;464715;256;29374;-79
2023/08/10 08:53:31;;;;;;;2.67;2.47;;;17.80;99.90;;;;;;464887;254;29459;-79
2023/08/10 08:55:33;;;;;;;2.43;2.23;;;17.80;99.90;;;;;;464889;254;28923;-78
2023/08/10 08:57:34;;;;;;;2.40;2.20;;;17.80;99.90;;;;;;464908;254;29018;-79
2023/08/10 08:59:35;;;;;;;2.40;2.20;;;17.70;99.90;;;;;;464929;254;29041;-79
2023/08/10 09:01:36;;;;;;;2.83;2.00;;;17.70;99.90;;;;;;464909;254;28947;-79
2023/08/10 09:03:38;;;;;;;2.17;1.90;;;17.60;99.90;;;;;;464915;254;29035;-79
2023/08/10 09:05:39;;;;;;;2.30;2.10;;;17.70;99.90;;;;;;464904;252;28917;-79
2023/08/10 09:07:40;;;;;;;4.67;2.50;;;17.70;99.90;;;;;;464924;254;28957;-79
2023/08/10 09:09:41;;;;;;;2.43;1.73;;;17.90;99.90;;;;;;464931;254;29015;-79
2023/08/10 09:11:43;;;;;;;2.30;2.00;;;18.00;99.90;;;;;;464916;254;28917;-79
2023/08/10 09:13:44;;;;;;;3.53;1.97;;;18.10;99.90;;;;;;464895;254;29353;-78
2023/08/10 09:15:45;;;;;;;2.50;2.30;;;18.20;99.90;;;;;;464918;254;30113;-79
2023/08/10 09:17:46;;;;;;;2.83;2.03;;;18.00;99.90;;;;;;464954;254;29431;-79
2023/08/10 09:19:48;;;;;;;2.40;2.20;;;17.90;99.90;;;;;;464904;254;28947;-79
2023/08/10 09:21:49;;;;;;;2.27;2.07;;;17.90;99.90;;;;;;464919;256;28910;-79
2023/08/10 09:23:52;;;;;;;2.10;1.80;;;18.20;99.90;;;;;;464888;256;28912;-79
2023/08/10 09:25:51;;;;;;;2.80;2.17;;;18.20;99.90;;;;;;464910;254;28925;-79
2023/08/10 09:27:53;;;;;;;2.70;2.23;;;18.20;99.90;;;;;;464940;254;28915;-79
2023/08/10 09:29:54;;;;;;;2.20;2.00;;;18.20;99.90;;;;;;464932;254;28955;-79
2023/08/10 09:31:55;;;;;;;2.53;2.20;;;18.20;99.90;;;;;;464926;254;28909;-79
2023/08/10 09:33:56;;;;;;;2.30;2.10;;;18.30;99.90;;;;;;464931;254;28951;-79
2023/08/10 09:35:58;;;;;;;1.90;1.70;;;18.40;99.90;;;;;;464937;254;29000;-79
2023/08/10 09:37:59;;;;;;;2.20;2.10;;;18.60;99.90;;;;;;464940;254;29445;-79
2023/08/10 09:40:00;;;;;;;2.10;2.00;;;18.70;99.90;;;;;;464925;254;29398;-80
2023/08/10 09:42:01;;;;;;;1.90;1.80;;;18.70;99.90;;;;;;464913;254;29361;-79
2023/08/10 09:44:03;;;;;;;2.30;2.07;;;18.90;99.90;;;;;;464768;256;29528;-80
2023/08/10 09:46:04;;;;;;;2.00;1.90;;;18.80;99.90;;;;;;464868;255;28939;-79
2023/08/10 09:48:05;;;;;;;2.20;2.00;;;18.80;99.90;;;;;;464921;253;28910;-79
2023/08/10 09:50:06;;;;;;;3.43;2.27;;;18.80;99.90;;;;;;464832;256;28955;-79
2023/08/10 09:52:08;;;;;;;4.47;2.33;;;18.90;99.90;;;;;;464898;254;28895;-79
2023/08/10 09:54:09;;;;;;;2.70;2.50;;;19.00;99.90;;;;;;464897;256;29020;-79
2023/08/10 09:56:10;;;;;;;2.33;2.13;;;19.00;99.90;;;;;;464874;254;28939;-80
2023/08/10 09:58:11;;;;;;;2.13;2.03;;;19.20;99.90;;;;;;464922;254;28901;-79
2023/08/10 10:00:21;;;;;;;2.50;2.30;;;19.20;99.90;;;;;;464874;254;28979;-79
2023/08/10 10:02:20;;;;;;;2.37;1.83;;;19.10;99.90;;;;;;464502;256;28901;-79
2023/08/10 10:04:21;;;;;;;3.73;2.13;;;19.00;99.90;;;;;;464881;254;28953;-79
2023/08/10 10:06:23;;;;;;;2.27;2.07;;;19.00;99.90;;;;;;464947;254;29059;-79
2023/08/10 10:08:24;;;;;;;2.80;2.20;;;18.90;99.90;;;;;;464894;256;29352;-79
2023/08/10 10:10:25;;;;;;;2.33;2.07;;;19.00;99.90;;;;;;464920;254;29378;-79
2023/08/10 10:12:26;;;;;;;2.00;1.90;;;19.10;99.90;;;;;;464877;252;29411;-79
2023/08/10 10:14:28;;;;;;;2.43;2.23;;;19.20;99.90;;;;;;464886;255;29033;-79
2023/08/10 10:16:29;;;;;;;2.67;2.47;;;19.10;99.90;;;;;;464916;254;28946;-79
2023/08/10 10:18:30;;;;;;;3.00;2.40;;;19.30;99.90;;;;;;464906;254;28907;-78
2023/08/10 10:20:31;;;;;;;2.40;1.93;;;19.30;99.90;;;;;;464849;254;28963;-79
2023/08/10 10:22:33;;;;;;;2.03;1.87;;;19.30;99.90;;;;;;464043;256;28990;-79
2023/08/10 10:24:34;;;;;;;1.97;1.77;;;19.40;99.90;;;;;;464922;254;28921;-79
2023/08/10 10:26:35;;;;;;;2.37;2.10;;;19.40;99.90;;;;;;464888;251;28958;-79
2023/08/10 10:28:36;;;;;;;2.40;2.20;;;19.40;99.90;;;;;;464887;254;28949;-79
2023/08/10 10:30:38;;;;;;;4.27;2.40;;;19.50;99.90;;;;;;464659;256;29034;-79
2023/08/10 10:32:39;;;;;;;2.30;2.10;;;19.80;99.90;;;;;;464890;254;30434;-79
2023/08/10 10:34:40;;;;;;;2.13;1.93;;;19.70;99.90;;;;;;464881;254;29374;-79